Time;durP1;ratioP1;P1;durP2;ratioP2;P2;SDS_P1;SDS_P2;PMS_P1;PMS_P2;Temp;Humidity;BMP_temperature;BMP_pressure;BME280_temperature;BME280_humidity;BME280_pressure;Samples;Min_cycle;Max_cycle;Signal;HPM_P1;HPM_P2
2023/03/08 11:06:50;;;;;;;2.17;1.40;;;;;;;6.96;84.10;94443.47;2091335;27;20566;-64
2023/03/08 11:34:23;;;;;;;2.03;1.27;;;;;;;7.49;82.29;94461.59;2083628;28;20565;-64
2023/03/08 11:35:36;;;;;;;1.75;0.90;;;;;;;7.56;81.71;94452.47;2081752;28;20194;-67
2023/03/08 11:37:06;;;;;;;1.30;0.95;;;;;;;7.70;81.93;94451.53;2078677;28;20223;-67
2023/03/08 11:38:21;;;;;;;2.45;1.35;;;;;;;7.77;81.22;94436.34;2052691;28;20222;-66
2023/03/08 11:47:42;;;;;;;4.45;1.20;;;;;;;8.00;80.93;94443.38;2083222;28;21246;-67
2023/03/08 11:50:04;;;;;;;2.97;1.40;;;;;;;7.98;80.58;94445.25;2085578;28;20577;-65
2023/03/08 11:51:12;;;;;;;2.60;1.55;;;;;;;8.17;80.69;94455.19;2079423;28;20701;-66
2023/03/08 11:52:30;;;;;;;2.50;1.33;;;;;;;8.23;79.66;94453.94;2082187;28;20784;-67
2023/03/08 11:53:44;;;;;;;2.05;1.27;;;;;;;8.20;79.72;94455.94;2068241;28;20200;-67
2023/03/08 11:55:35;;;;;;;1.60;0.95;;;;;;;8.21;79.70;94448.00;2068065;28;20837;-68
2023/03/08 11:56:46;;;;;;;2.33;1.20;;;;;;;8.21;79.79;94436.78;2066143;28;20650;-63
2023/03/08 11:58:02;;;;;;;2.78;0.90;;;;;;;8.34;79.31;94446.22;2056179;28;20245;-63
2023/03/08 11:59:08;;;;;;;1.60;0.90;;;;;;;8.51;79.37;94446.81;2056760;28;20691;-63
2023/03/08 12:00:38;;;;;;;2.00;1.10;;;;;;;8.45;78.42;94427.25;2063820;28;20220;-63
2023/03/08 12:01:51;;;;;;;1.58;0.90;;;;;;;8.71;77.71;94428.94;2062774;28;20223;-66
2023/03/08 12:02:55;;;;;;;1.70;0.80;;;;;;;8.72;77.46;94454.03;2071448;28;20217;-65
2023/03/08 12:04:02;;;;;;;2.13;0.90;;;;;;;8.74;77.49;94441.75;2072160;28;20197;-65
2023/03/08 12:05:30;;;;;;;1.85;1.00;;;;;;;8.88;77.67;94448.56;2070849;28;20197;-65
2023/03/08 12:06:37;;;;;;;8.98;1.10;;;;;;;8.99;77.04;94452.00;2072922;28;20328;-69
2023/03/08 12:07:45;;;;;;;3.45;1.10;;;;;;;8.98;77.17;94442.53;2071803;28;20224;-65
2023/03/08 12:08:53;;;;;;;4.82;1.40;;;;;;;9.09;77.29;94452.19;2071982;28;20224;-65
2023/03/08 12:10:01;;;;;;;3.47;0.98;;;;;;;9.20;77.25;94443.56;2068943;28;20212;-65
2023/03/08 12:11:11;;;;;;;1.95;0.80;;;;;;;9.11;76.74;94449.47;2069681;28;20197;-65
2023/03/08 12:12:27;;;;;;;4.90;1.05;;;;;;;9.12;76.75;94444.13;2070159;28;20193;-66
2023/03/08 12:13:43;;;;;;;2.05;0.90;;;;;;;9.23;76.85;94439.91;2071075;28;20206;-66
2023/03/08 12:15:01;;;;;;;1.50;0.90;;;;;;;9.10;76.82;94450.38;2064158;28;20209;-65
2023/03/08 12:16:22;;;;;;;14.00;1.33;;;;;;;8.98;76.65;94441.72;2065513;28;20843;-65
2023/03/08 12:17:35;;;;;;;2.17;1.00;;;;;;;8.99;76.75;94457.22;2071623;28;20561;-65
2023/03/08 12:18:45;;;;;;;2.75;0.90;;;;;;;9.00;77.05;94458.03;2079926;28;20240;-65
2023/03/08 12:19:49;;;;;;;1.73;1.00;;;;;;;9.06;77.25;94456.78;2074953;28;20204;-65
2023/03/08 12:21:14;;;;;;;3.22;1.02;;;;;;;9.14;76.68;94455.28;2068430;28;20201;-65
2023/03/08 12:22:40;;;;;;;1.50;0.90;;;;;;;9.27;76.77;94459.59;2068983;28;20213;-65
2023/03/08 12:23:41;;;;;;;1.55;0.90;;;;;;;9.39;76.36;94474.28;2070589;28;20246;-65
2023/03/08 12:24:52;;;;;;;1.80;1.10;;;;;;;9.58;75.81;94465.09;2070898;28;20198;-65
2023/03/08 12:26:21;;;;;;;1.65;0.73;;;;;;;9.60;75.42;94452.78;2071386;28;20723;-64
2023/03/08 12:27:29;;;;;;;4.97;1.10;;;;;;;9.44;75.84;94484.34;2070271;28;20208;-66
2023/03/08 12:28:40;;;;;;;4.07;1.30;;;;;;;9.56;75.68;94462.59;2070052;28;20197;-66
2023/03/08 12:29:48;;;;;;;3.47;1.05;;;;;;;9.42;76.12;94468.00;2073158;28;20257;-66
2023/03/08 12:31:18;;;;;;;3.53;0.82;;;;;;;9.18;76.37;94453.28;2074360;28;20196;-67
2023/03/08 12:32:29;;;;;;;1.60;0.90;;;;;;;9.51;75.96;94472.53;2081893;28;20201;-66
2023/03/08 12:33:31;;;;;;;1.23;0.82;;;;;;;9.50;75.55;94447.44;2080553;28;20208;-65
2023/03/08 12:34:44;;;;;;;2.20;1.00;;;;;;;9.82;75.34;94454.56;2072720;28;20243;-65
2023/03/08 12:35:50;;;;;;;1.67;0.82;;;;;;;9.72;75.34;94445.81;2069119;28;20910;-65
2023/03/08 12:36:53;;;;;;;1.85;1.20;;;;;;;9.61;75.26;94465.69;2069825;28;20207;-66
2023/03/08 12:38:06;;;;;;;2.90;0.80;;;;;;;9.81;75.17;94452.91;2070138;28;20217;-65
2023/03/08 12:39:26;;;;;;;2.05;0.95;;;;;;;10.16;73.55;94456.34;2076764;28;20653;-66
2023/03/08 12:40:38;;;;;;;1.58;1.00;;;;;;;10.16;73.29;94462.41;2075729;28;20989;-66
2023/03/08 12:41:40;;;;;;;3.13;0.95;;;;;;;10.23;73.30;94466.22;2071544;28;20197;-65
2023/03/08 12:42:41;;;;;;;1.35;0.80;;;;;;;10.42;72.93;94476.06;2069837;28;20264;-66
2023/03/08 12:43:43;;;;;;;1.75;0.90;;;;;;;10.36;73.13;94460.88;2071209;28;20199;-66
2023/03/08 12:44:44;;;;;;;2.45;0.98;;;;;;;10.35;73.40;94451.38;2066401;28;20198;-66
2023/03/08 12:45:47;;;;;;;1.20;0.80;;;;;;;10.81;72.14;94457.34;2072010;28;20198;-66
2023/03/08 12:46:56;;;;;;;1.95;0.80;;;;;;;10.77;71.52;94450.72;2069178;28;20827;-66
2023/03/08 12:48:04;;;;;;;1.73;1.00;;;;;;;10.71;71.64;94443.38;2070234;28;20327;-64
2023/03/08 12:49:19;;;;;;;2.10;1.30;;;;;;;10.79;71.24;94469.69;2070304;28;20697;-68
2023/03/08 12:50:23;;;;;;;1.73;0.90;;;;;;;10.24;72.40;94465.22;2071319;28;20193;-67
2023/03/08 12:51:32;;;;;;;1.80;0.98;;;;;;;10.28;73.39;94460.63;2071699;28;20206;-65
2023/03/08 12:52:34;;;;;;;1.40;0.80;;;;;;;10.25;73.46;94477.34;2067785;28;20221;-65
2023/03/08 12:53:51;;;;;;;1.75;0.90;;;;;;;10.15;73.56;94459.94;2066667;28;20212;-66
2023/03/08 12:55:05;;;;;;;1.10;0.70;;;;;;;10.31;73.41;94460.38;2069583;28;20530;-66
2023/03/08 12:56:10;;;;;;;1.48;0.75;;;;;;;10.21;73.31;94447.22;2073484;28;20200;-66
2023/03/08 12:57:21;;;;;;;1.65;0.82;;;;;;;10.25;73.54;94453.84;2066776;28;20552;-65
2023/03/08 12:58:22;;;;;;;1.35;0.80;;;;;;;10.18;73.71;94463.09;2071721;28;20217;-66
2023/03/08 12:59:32;;;;;;;2.85;1.10;;;;;;;10.04;73.65;94452.91;2073084;28;20668;-62
2023/03/08 13:00:36;;;;;;;2.10;0.80;;;;;;;10.06;73.78;94462.28;2067334;28;20537;-65
2023/03/08 13:01:39;;;;;;;2.90;0.73;;;;;;;9.96;74.30;94464.75;2064092;28;20560;-67
2023/03/08 13:02:40;;;;;;;1.77;1.00;;;;;;;9.86;74.74;94461.22;2061969;28;20242;-67
2023/03/08 13:03:42;;;;;;;1.40;0.85;;;;;;;9.75;75.40;94471.63;2064329;28;20383;-67
2023/03/08 13:04:44;;;;;;;1.70;1.15;;;;;;;9.85;75.37;94477.78;2066452;28;20182;-68
2023/03/08 13:05:48;;;;;;;5.20;1.40;;;;;;;10.12;74.79;94469.63;2066233;28;20774;-68
2023/03/08 13:07:05;;;;;;;1.27;0.77;;;;;;;10.02;74.31;94470.44;2066233;28;20199;-67
2023/03/08 13:08:06;;;;;;;2.08;0.80;;;;;;;9.97;74.93;94463.81;2065359;28;20243;-67
2023/03/08 13:09:20;;;;;;;1.52;0.75;;;;;;;9.90;74.86;94464.41;2067239;28;20203;-67
2023/03/08 13:10:28;;;;;;;1.30;0.82;;;;;;;9.95;75.05;94463.13;2066749;28;20268;-67
2023/03/08 13:11:40;;;;;;;1.90;0.93;;;;;;;9.82;75.08;94459.78;2067807;28;20193;-66
2023/03/08 13:12:47;;;;;;;1.80;0.90;;;;;;;9.71;75.78;94450.16;2063992;28;20229;-67
2023/03/08 13:13:56;;;;;;;1.17;0.85;;;;;;;9.74;76.06;94470.81;2061840;28;20198;-68
2023/03/08 13:15:00;;;;;;;1.40;0.90;;;;;;;9.63;76.39;94449.94;2063475;28;20233;-67
2023/03/08 13:16:26;;;;;;;4.25;0.80;;;;;;;9.55;76.44;94453.13;2066025;28;20228;-67
2023/03/08 13:17:32;;;;;;;1.67;0.80;;;;;;;9.55;77.42;94452.28;2064369;28;20571;-67
2023/03/08 13:18:35;;;;;;;2.58;1.00;;;;;;;9.38;77.60;94437.94;2062501;28;20248;-67
2023/03/08 13:19:37;;;;;;;2.88;0.80;;;;;;;9.39;77.79;94489.91;2062788;28;20229;-66
2023/03/08 13:20:38;;;;;;;1.73;0.90;;;;;;;9.30;78.33;94454.13;2064933;28;20729;-67
2023/03/08 13:22:10;;;;;;;1.40;0.80;;;;;;;9.29;78.39;94465.50;2066241;28;20205;-67
2023/03/08 13:23:12;;;;;;;1.52;0.70;;;;;;;9.31;78.64;94468.81;2064074;28;20758;-66
2023/03/08 13:24:17;;;;;;;1.20;0.80;;;;;;;9.25;78.40;94459.66;2065354;28;20207;-66
2023/03/08 13:25:34;;;;;;;6.38;0.70;;;;;;;9.17;78.56;94450.75;2065551;28;20205;-67
2023/03/08 13:26:53;;;;;;;1.73;0.90;;;;;;;9.17;78.73;94455.97;2064658;28;20214;-67
2023/03/08 13:28:04;;;;;;;4.28;0.70;;;;;;;9.23;79.21;94458.97;2065384;28;20230;-67
2023/03/08 13:29:14;;;;;;;1.85;0.90;;;;;;;9.25;79.11;94459.66;2064965;28;20206;-67
2023/03/08 13:30:23;;;;;;;8.35;4.10;;;;;;;9.17;79.31;94442.94;2063173;28;20202;-66
2023/03/08 13:31:29;;;;;;;4.10;1.85;;;;;;;9.23;79.09;94456.38;2066511;28;20669;-64
2023/03/08 13:32:31;;;;;;;4.10;1.85;;;;;;;9.18;79.28;94475.88;2064652;28;20206;-67
2023/03/08 13:33:37;;;;;;;1.83;1.00;;;;;;;9.19;79.58;94454.91;2064026;28;20202;-67
2023/03/08 13:34:40;;;;;;;2.28;0.95;;;;;;;9.01;79.55;94440.66;2065451;28;20638;-67
2023/03/08 13:35:42;;;;;;;2.40;0.95;;;;;;;9.18;80.33;94455.03;2060359;28;20194;-67
2023/03/08 13:36:47;;;;;;;4.50;1.15;;;;;;;9.18;80.11;94450.66;2067411;28;20194;-67
2023/03/08 13:37:54;;;;;;;1.52;0.60;;;;;;;9.09;80.36;94457.38;2063753;28;20229;-67
2023/03/08 13:39:05;;;;;;;1.60;0.80;;;;;;;9.01;81.49;94451.91;2065240;28;20230;-67
2023/03/08 13:40:15;;;;;;;1.70;1.00;;;;;;;8.87;81.77;94445.09;2064299;28;20651;-67
2023/03/08 13:41:17;;;;;;;1.88;0.85;;;;;;;8.82;82.41;94455.00;2064097;28;20203;-67
2023/03/08 13:42:23;;;;;;;2.00;1.00;;;;;;;8.78;82.38;94435.38;2065404;28;20225;-65
2023/03/08 13:43:28;;;;;;;2.20;1.10;;;;;;;8.72;83.68;94454.03;2066768;28;20206;-65
2023/03/08 13:44:29;;;;;;;0.90;0.60;;;;;;;8.64;84.51;94438.97;2062797;28;20205;-65
2023/03/08 13:45:31;;;;;;;3.25;1.00;;;;;;;8.58;85.29;94450.66;2065179;28;20320;-65
2023/03/08 13:46:41;;;;;;;2.53;1.35;;;;;;;8.60;85.16;94446.16;2063303;28;20186;-65
2023/03/08 13:47:44;;;;;;;1.48;0.90;;;;;;;8.57;84.58;94458.53;2067748;28;20225;-65
2023/03/08 13:48:46;;;;;;;4.03;0.90;;;;;;;8.53;84.33;94449.31;2066539;28;20202;-64
2023/03/08 13:49:49;;;;;;;1.30;0.73;;;;;;;8.53;84.78;94450.13;2069711;28;20204;-65
2023/03/08 13:50:52;;;;;;;1.67;1.00;;;;;;;8.54;85.60;94459.59;2068633;28;20217;-64
2023/03/08 13:51:58;;;;;;;2.15;1.00;;;;;;;8.52;85.70;94437.25;2065018;28;20205;-65
2023/03/08 13:53:02;;;;;;;1.25;0.70;;;;;;;8.58;86.31;94473.22;2063789;28;20253;-66
2023/03/08 13:54:04;;;;;;;1.20;0.70;;;;;;;8.54;86.35;94443.16;2066374;28;20201;-65
2023/03/08 13:55:15;;;;;;;2.60;0.80;;;;;;;8.58;86.51;94452.41;2066897;28;20231;-65
2023/03/08 13:56:25;;;;;;;4.68;0.85;;;;;;;8.74;86.77;94441.75;2065905;28;20511;-65
2023/03/08 13:57:30;;;;;;;1.40;0.90;;;;;;;8.68;86.59;94413.56;2066767;28;20887;-65
2023/03/08 13:58:46;;;;;;;1.20;0.80;;;;;;;8.83;86.65;94434.06;2062539;28;20198;-66
2023/03/08 13:59:53;;;;;;;1.33;0.80;;;;;;;8.96;85.60;94427.97;2079402;28;20193;-66
2023/03/08 14:01:03;;;;;;;1.27;0.90;;;;;;;9.14;84.61;94444.84;2080124;28;20216;-66
2023/03/08 14:02:19;;;;;;;1.35;1.00;;;;;;;9.41;84.08;94415.09;2064550;28;20202;-66
2023/03/08 14:03:29;;;;;;;1.40;0.90;;;;;;;9.36;83.13;94421.56;2063963;28;20235;-66
2023/03/08 14:04:33;;;;;;;1.05;0.60;;;;;;;9.26;82.11;94409.25;2061939;28;20289;-66
2023/03/08 14:05:42;;;;;;;1.52;0.82;;;;;;;9.11;83.06;94405.19;2063947;28;20206;-66
2023/03/08 14:06:49;;;;;;;1.60;0.80;;;;;;;9.07;83.46;94420.22;2064836;28;20236;-66
2023/03/08 14:08:02;;;;;;;1.92;0.70;;;;;;;9.02;83.53;94432.75;2064820;28;20330;-66
2023/03/08 14:09:04;;;;;;;1.17;0.70;;;;;;;9.02;83.72;94424.09;2067160;28;20281;-66
2023/03/08 14:10:12;;;;;;;2.58;1.00;;;;;;;8.99;83.33;94444.22;2062684;28;20237;-66
2023/03/08 14:11:20;;;;;;;1.83;0.77;;;;;;;8.97;83.52;94414.84;2065871;28;20194;-65
2023/03/08 14:12:27;;;;;;;1.20;0.60;;;;;;;8.93;83.59;94423.00;2062737;28;20204;-65
2023/03/08 14:13:33;;;;;;;1.30;0.93;;;;;;;8.83;83.71;94413.25;2066237;28;20774;-66
2023/03/08 14:14:39;;;;;;;1.10;0.70;;;;;;;8.84;83.99;94440.13;2065407;28;20212;-66
2023/03/08 14:15:48;;;;;;;1.52;0.70;;;;;;;8.79;85.01;94426.63;2068354;28;20560;-66
2023/03/08 14:16:52;;;;;;;1.73;0.75;;;;;;;8.70;85.85;94442.88;2064091;28;20199;-66
2023/03/08 14:17:56;;;;;;;3.83;0.80;;;;;;;8.64;86.76;94449.38;2060845;28;20712;-66
2023/03/08 14:19:07;;;;;;;1.63;0.80;;;;;;;8.59;86.72;94435.88;2063573;28;20292;-66
2023/03/08 14:20:22;;;;;;;1.10;0.70;;;;;;;8.60;87.43;94453.13;2064988;28;20236;-65
2023/03/08 14:21:28;;;;;;;3.30;0.80;;;;;;;8.59;87.34;94447.09;2065857;28;20197;-65
2023/03/08 14:22:36;;;;;;;2.00;0.60;;;;;;;8.52;87.61;94447.66;2062114;28;20194;-66
2023/03/08 14:23:45;;;;;;;1.20;0.80;;;;;;;8.57;88.52;94442.94;2064009;28;20206;-66
2023/03/08 14:24:54;;;;;;;1.15;0.70;;;;;;;8.43;88.24;94442.16;2063568;28;20220;-66
2023/03/08 14:25:57;;;;;;;8.82;0.95;;;;;;;8.59;88.75;94454.06;2065771;28;20267;-66
2023/03/08 14:27:03;;;;;;;1.30;0.75;;;;;;;8.65;88.69;94445.84;2066993;28;20198;-67
2023/03/08 14:28:04;;;;;;;1.67;0.90;;;;;;;8.62;88.24;94444.28;2066014;28;20240;-66
2023/03/08 14:29:14;;;;;;;1.20;0.70;;;;;;;8.66;88.05;94458.72;2063242;28;20320;-66
2023/03/08 14:30:18;;;;;;;1.10;0.70;;;;;;;8.69;88.29;94444.66;2062677;28;20299;-66
2023/03/08 14:31:28;;;;;;;0.90;0.57;;;;;;;8.63;88.05;94447.72;2066333;28;20203;-66
2023/03/08 14:32:31;;;;;;;1.52;0.90;;;;;;;8.60;88.77;94451.34;2064482;28;20589;-66
2023/03/08 14:33:33;;;;;;;1.45;0.80;;;;;;;8.54;89.25;94445.78;2062883;28;20260;-66
2023/03/08 14:34:45;;;;;;;1.50;1.00;;;;;;;8.59;90.14;94444.50;2063120;28;20235;-66
2023/03/08 14:41:42;;;;;;;2.35;0.80;;;;;;;8.48;91.66;94444.44;2083830;28;20553;-65
2023/03/08 14:42:45;;;;;;;4.50;1.30;;;;;;;8.50;92.34;94440.78;2077849;28;21227;-67
2023/03/08 15:05:14;;;;;;;12.85;6.97;;;;;;;8.53;91.54;94392.91;2100046;27;20581;-68
2023/03/08 15:06:31;;;;;;;3.30;1.60;;;;;;;8.80;90.48;94412.69;2115315;28;20193;-67
2023/03/08 15:07:35;;;;;;;1.35;0.80;;;;;;;9.13;89.30;94405.91;2105297;28;20234;-67
2023/03/08 15:08:36;;;;;;;2.13;0.82;;;;;;;9.30;88.30;94399.44;2085909;28;20204;-68
2023/03/08 15:09:39;;;;;;;4.68;1.00;;;;;;;9.30;88.50;94396.84;2087421;28;20201;-67
2023/03/08 15:10:42;;;;;;;1.30;0.85;;;;;;;9.13;87.96;94392.91;2087443;28;20193;-67
2023/03/08 15:11:45;;;;;;;5.50;0.90;;;;;;;9.26;87.74;94395.41;2086593;28;20529;-67
2023/03/08 15:12:46;;;;;;;2.55;0.80;;;;;;;9.53;87.02;94394.25;2084481;28;20248;-67
2023/03/08 15:13:49;;;;;;;3.55;0.90;;;;;;;9.70;85.65;94390.34;2077928;28;20205;-67
2023/03/08 15:14:50;;;;;;;1.98;0.90;;;;;;;9.87;85.68;94378.63;2085920;28;20665;-68
2023/03/08 15:15:52;;;;;;;2.20;0.80;;;;;;;10.06;84.80;94376.22;2086312;28;20197;-67
2023/03/08 15:16:54;;;;;;;1.23;0.80;;;;;;;10.20;84.11;94389.97;2085856;28;20700;-67
2023/03/08 15:17:55;;;;;;;1.20;0.70;;;;;;;9.95;84.26;94378.84;2085757;28;20586;-67
2023/03/08 15:18:56;;;;;;;1.60;0.90;;;;;;;10.25;82.96;94391.25;2087303;28;20223;-67
2023/03/08 15:19:58;;;;;;;2.65;0.95;;;;;;;9.99;83.15;94372.44;2086626;28;20193;-66
2023/03/08 15:21:00;;;;;;;2.65;0.88;;;;;;;10.01;84.09;94383.59;2086879;28;20188;-67
2023/03/08 15:22:04;;;;;;;1.50;0.85;;;;;;;9.82;84.17;94383.38;2086501;28;20246;-67
2023/03/08 15:23:07;;;;;;;1.17;0.70;;;;;;;9.59;84.73;94378.16;2085087;28;20552;-66
2023/03/08 15:24:14;;;;;;;1.80;0.90;;;;;;;9.40;85.52;94378.75;2086018;28;20200;-67
2023/03/08 15:25:21;;;;;;;2.35;0.70;;;;;;;9.26;85.87;94387.59;2085913;28;20663;-66
2023/03/08 15:26:25;;;;;;;3.35;0.80;;;;;;;9.21;86.67;94382.72;2087413;28;20211;-66
2023/03/08 15:27:29;;;;;;;1.10;0.60;;;;;;;9.12;87.31;94388.63;2086358;28;20264;-66
